sensor_id;sensor_type;location;lat;lon;timestamp;temperature;humidity
44431;DHT22;30135;47.866;-4.222;2023-03-01T00:01:25;7.20;82.40
44431;DHT22;30135;47.866;-4.222;2023-03-01T00:03:53;7.20;82.50
44431;DHT22;30135;47.866;-4.222;2023-03-01T00:06:20;7.10;82.50
44431;DHT22;30135;47.866;-4.222;2023-03-01T00:08:47;7.20;82.50
44431;DHT22;30135;47.866;-4.222;2023-03-01T00:11:28;7.20;82.60
44431;DHT22;30135;47.866;-4.222;2023-03-01T00:13:58;7.20;82.70
44431;DHT22;30135;47.866;-4.222;2023-03-01T00:16:36;7.20;82.70
44431;DHT22;30135;47.866;-4.222;2023-03-01T00:19:06;7.10;82.70
44431;DHT22;30135;47.866;-4.222;2023-03-01T00:21:33;7.10;82.70
44431;DHT22;30135;47.866;-4.222;2023-03-01T00:24:01;7.10;82.80
44431;DHT22;30135;47.866;-4.222;2023-03-01T00:26:28;7.10;82.80
44431;DHT22;30135;47.866;-4.222;2023-03-01T00:28:54;7.10;82.80
44431;DHT22;30135;47.866;-4.222;2023-03-01T00:31:24;7.10;82.80
44431;DHT22;30135;47.866;-4.222;2023-03-01T00:33:53;7.10;82.90
44431;DHT22;30135;47.866;-4.222;2023-03-01T00:36:27;7.00;82.90
44431;DHT22;30135;47.866;-4.222;2023-03-01T00:38:55;7.00;82.80
44431;DHT22;30135;47.866;-4.222;2023-03-01T00:41:22;7.00;82.80
44431;DHT22;30135;47.866;-4.222;2023-03-01T00:43:48;7.00;82.90
44431;DHT22;30135;47.866;-4.222;2023-03-01T00:46:18;7.00;83.00
44431;DHT22;30135;47.866;-4.222;2023-03-01T00:48:45;7.00;83.10
44431;DHT22;30135;47.866;-4.222;2023-03-01T00:51:20;7.00;83.00
44431;DHT22;30135;47.866;-4.222;2023-03-01T00:53:50;7.00;83.10
44431;DHT22;30135;47.866;-4.222;2023-03-01T00:56:17;6.90;83.00
44431;DHT22;30135;47.866;-4.222;2023-03-01T00:58:43;6.90;83.00
44431;DHT22;30135;47.866;-4.222;2023-03-01T01:01:15;6.90;83.00
44431;DHT22;30135;47.866;-4.222;2023-03-01T01:03:54;6.90;83.00
44431;DHT22;30135;47.866;-4.222;2023-03-01T01:06:26;6.90;83.10
44431;DHT22;30135;47.866;-4.222;2023-03-01T01:08:54;6.90;83.00
44431;DHT22;30135;47.866;-4.222;2023-03-01T01:11:22;6.80;83.00
44431;DHT22;30135;47.866;-4.222;2023-03-01T01:13:50;6.80;83.00
44431;DHT22;30135;47.866;-4.222;2023-03-01T01:16:18;6.80;83.10
44431;DHT22;30135;47.866;-4.222;2023-03-01T01:18:44;6.80;83.10
44431;DHT22;30135;47.866;-4.222;2023-03-01T01:21:14;6.80;83.20
44431;DHT22;30135;47.866;-4.222;2023-03-01T01:23:42;6.70;83.10
44431;DHT22;30135;47.866;-4.222;2023-03-01T01:26:12;6.70;83.20
44431;DHT22;30135;47.866;-4.222;2023-03-01T01:28:42;6.70;83.20
44431;DHT22;30135;47.866;-4.222;2023-03-01T01:31:09;6.70;83.10
44431;DHT22;30135;47.866;-4.222;2023-03-01T01:33:35;6.70;83.20
44431;DHT22;30135;47.866;-4.222;2023-03-01T01:36:04;6.60;83.10
44431;DHT22;30135;47.866;-4.222;2023-03-01T01:38:31;6.60;83.10
44431;DHT22;30135;47.866;-4.222;2023-03-01T01:40:57;6.60;83.10
44431;DHT22;30135;47.866;-4.222;2023-03-01T01:43:33;6.60;83.20
44431;DHT22;30135;47.866;-4.222;2023-03-01T01:49:03;6.50;83.30
44431;DHT22;30135;47.866;-4.222;2023-03-01T01:51:39;6.50;83.40
44431;DHT22;30135;47.866;-4.222;2023-03-01T01:54:14;6.40;83.40
44431;DHT22;30135;47.866;-4.222;2023-03-01T01:56:45;6.40;83.50
44431;DHT22;30135;47.866;-4.222;2023-03-01T01:59:14;6.40;83.50
44431;DHT22;30135;47.866;-4.222;2023-03-01T02:01:40;6.30;83.30
44431;DHT22;30135;47.866;-4.222;2023-03-01T02:04:07;6.30;83.50
44431;DHT22;30135;47.866;-4.222;2023-03-01T02:06:45;6.30;83.60
44431;DHT22;30135;47.866;-4.222;2023-03-01T02:09:19;6.20;83.50
44431;DHT22;30135;47.866;-4.222;2023-03-01T02:11:47;6.20;83.50
44431;DHT22;30135;47.866;-4.222;2023-03-01T02:14:14;6.20;83.50
44431;DHT22;30135;47.866;-4.222;2023-03-01T02:16:41;6.10;83.30
44431;DHT22;30135;47.866;-4.222;2023-03-01T02:19:09;6.10;83.30
44431;DHT22;30135;47.866;-4.222;2023-03-01T02:22:17;6.10;83.20
44431;DHT22;30135;47.866;-4.222;2023-03-01T02:27:33;6.10;83.90
44431;DHT22;30135;47.866;-4.222;2023-03-01T02:30:05;6.00;83.00
44431;DHT22;30135;47.866;-4.222;2023-03-01T02:32:32;6.00;82.90
44431;DHT22;30135;47.866;-4.222;2023-03-01T02:34:58;5.90;82.70
44431;DHT22;30135;47.866;-4.222;2023-03-01T02:37:25;5.90;82.70
44431;DHT22;30135;47.866;-4.222;2023-03-01T02:39:59;5.90;82.80
44431;DHT22;30135;47.866;-4.222;2023-03-01T02:42:35;5.90;82.60
44431;DHT22;30135;47.866;-4.222;2023-03-01T02:45:03;5.80;82.60
44431;DHT22;30135;47.866;-4.222;2023-03-01T02:47:30;5.80;82.50
44431;DHT22;30135;47.866;-4.222;2023-03-01T02:51:00;5.80;82.40
44431;DHT22;30135;47.866;-4.222;2023-03-01T02:53:56;5.80;82.30
44431;DHT22;30135;47.866;-4.222;2023-03-01T02:56:25;5.70;82.20
44431;DHT22;30135;47.866;-4.222;2023-03-01T02:58:52;5.70;82.10
44431;DHT22;30135;47.866;-4.222;2023-03-01T03:01:19;5.60;81.90
44431;DHT22;30135;47.866;-4.222;2023-03-01T03:03:46;5.60;81.90
44431;DHT22;30135;47.866;-4.222;2023-03-01T03:06:12;5.60;82.00
44431;DHT22;30135;47.866;-4.222;2023-03-01T03:08:38;5.50;81.90
44431;DHT22;30135;47.866;-4.222;2023-03-01T03:11:04;5.50;81.90
44431;DHT22;30135;47.866;-4.222;2023-03-01T03:13:30;5.50;81.90
44431;DHT22;30135;47.866;-4.222;2023-03-01T03:15:57;5.50;81.80
44431;DHT22;30135;47.866;-4.222;2023-03-01T03:18:25;5.40;81.60
44431;DHT22;30135;47.866;-4.222;2023-03-01T03:20:53;5.40;81.70
44431;DHT22;30135;47.866;-4.222;2023-03-01T03:23:21;5.30;81.40
44431;DHT22;30135;47.866;-4.222;2023-03-01T03:25:50;5.30;81.70
44431;DHT22;30135;47.866;-4.222;2023-03-01T03:28:17;5.30;81.70
44431;DHT22;30135;47.866;-4.222;2023-03-01T03:30:44;5.30;81.80
44431;DHT22;30135;47.866;-4.222;2023-03-01T03:33:11;5.30;81.70
44431;DHT22;30135;47.866;-4.222;2023-03-01T03:35:44;5.30;81.50
44431;DHT22;30135;47.866;-4.222;2023-03-01T03:38:14;5.20;81.30
44431;DHT22;30135;47.866;-4.222;2023-03-01T03:40:46;5.10;81.20
44431;DHT22;30135;47.866;-4.222;2023-03-01T03:43:22;5.10;81.20
44431;DHT22;30135;47.866;-4.222;2023-03-01T03:45:49;5.10;81.30
44431;DHT22;30135;47.866;-4.222;2023-03-01T03:48:17;5.00;81.10
44431;DHT22;30135;47.866;-4.222;2023-03-01T03:50:52;5.00;81.00
44431;DHT22;30135;47.866;-4.222;2023-03-01T03:53:21;5.00;81.00
44431;DHT22;30135;47.866;-4.222;2023-03-01T03:55:48;5.00;81.10
44431;DHT22;30135;47.866;-4.222;2023-03-01T03:58:15;4.90;80.90
44431;DHT22;30135;47.866;-4.222;2023-03-01T04:00:43;5.00;80.90
44431;DHT22;30135;47.866;-4.222;2023-03-01T04:03:12;4.90;80.80
44431;DHT22;30135;47.866;-4.222;2023-03-01T04:05:40;4.90;80.80
44431;DHT22;30135;47.866;-4.222;2023-03-01T04:08:07;4.90;80.80
44431;DHT22;30135;47.866;-4.222;2023-03-01T04:10:44;4.90;80.70
44431;DHT22;30135;47.866;-4.222;2023-03-01T04:13:14;4.80;80.60
44431;DHT22;30135;47.866;-4.222;2023-03-01T04:15:41;4.80;80.60
44431;DHT22;30135;47.866;-4.222;2023-03-01T04:18:14;4.80;80.60
44431;DHT22;30135;47.866;-4.222;2023-03-01T04:20:42;4.80;80.50
44431;DHT22;30135;47.866;-4.222;2023-03-01T04:23:11;4.70;80.30
44431;DHT22;30135;47.866;-4.222;2023-03-01T04:25:52;4.70;80.40
44431;DHT22;30135;47.866;-4.222;2023-03-01T04:30:52;4.60;80.10
44431;DHT22;30135;47.866;-4.222;2023-03-01T04:33:20;4.60;80.00
44431;DHT22;30135;47.866;-4.222;2023-03-01T04:35:47;4.60;80.10
44431;DHT22;30135;47.866;-4.222;2023-03-01T04:38:16;4.50;80.00
44431;DHT22;30135;47.866;-4.222;2023-03-01T04:40:44;4.50;80.00
44431;DHT22;30135;47.866;-4.222;2023-03-01T04:43:11;4.50;80.00
44431;DHT22;30135;47.866;-4.222;2023-03-01T04:45:41;4.50;79.90
44431;DHT22;30135;47.866;-4.222;2023-03-01T04:48:07;4.50;79.80
44431;DHT22;30135;47.866;-4.222;2023-03-01T04:50:33;4.50;79.80
44431;DHT22;30135;47.866;-4.222;2023-03-01T04:52:59;4.50;79.80
44431;DHT22;30135;47.866;-4.222;2023-03-01T04:55:27;4.40;79.70
44431;DHT22;30135;47.866;-4.222;2023-03-01T04:57:54;4.40;79.60
44431;DHT22;30135;47.866;-4.222;2023-03-01T05:00:21;4.40;79.60
44431;DHT22;30135;47.866;-4.222;2023-03-01T05:02:59;4.40;79.60
44431;DHT22;30135;47.866;-4.222;2023-03-01T05:05:33;4.40;79.60
44431;DHT22;30135;47.866;-4.222;2023-03-01T05:08:06;4.40;79.60
44431;DHT22;30135;47.866;-4.222;2023-03-01T05:11:00;4.30;79.30
44431;DHT22;30135;47.866;-4.222;2023-03-01T05:13:26;4.30;79.30
44431;DHT22;30135;47.866;-4.222;2023-03-01T05:15:55;4.30;79.40
44431;DHT22;30135;47.866;-4.222;2023-03-01T05:18:24;4.20;79.40
44431;DHT22;30135;47.866;-4.222;2023-03-01T05:20:52;4.20;79.30
44431;DHT22;30135;47.866;-4.222;2023-03-01T05:23:22;4.20;79.40
44431;DHT22;30135;47.866;-4.222;2023-03-01T05:25:48;4.20;79.40
44431;DHT22;30135;47.866;-4.222;2023-03-01T05:28:14;4.20;79.30
44431;DHT22;30135;47.866;-4.222;2023-03-01T05:30:41;4.20;79.20
44431;DHT22;30135;47.866;-4.222;2023-03-01T05:33:08;4.20;79.30
44431;DHT22;30135;47.866;-4.222;2023-03-01T05:35:42;4.20;79.10
44431;DHT22;30135;47.866;-4.222;2023-03-01T05:38:10;4.10;78.90
44431;DHT22;30135;47.866;-4.222;2023-03-01T05:40:44;4.10;79.00
44431;DHT22;30135;47.866;-4.222;2023-03-01T05:43:14;4.10;79.00
44431;DHT22;30135;47.866;-4.222;2023-03-01T05:45:42;4.00;78.90
44431;DHT22;30135;47.866;-4.222;2023-03-01T05:48:09;4.00;78.90
44431;DHT22;30135;47.866;-4.222;2023-03-01T05:50:42;4.00;79.00
44431;DHT22;30135;47.866;-4.222;2023-03-01T05:53:17;4.00;79.10
44431;DHT22;30135;47.866;-4.222;2023-03-01T05:55:47;4.00;79.10
44431;DHT22;30135;47.866;-4.222;2023-03-01T05:58:15;3.90;78.90
44431;DHT22;30135;47.866;-4.222;2023-03-01T06:00:45;4.00;79.00
44431;DHT22;30135;47.866;-4.222;2023-03-01T06:03:13;4.00;79.00
44431;DHT22;30135;47.866;-4.222;2023-03-01T06:05:41;4.00;78.90
44431;DHT22;30135;47.866;-4.222;2023-03-01T06:08:09;3.90;78.90
44431;DHT22;30135;47.866;-4.222;2023-03-01T06:10:36;3.90;78.80
44431;DHT22;30135;47.866;-4.222;2023-03-01T06:13:03;3.90;78.80
44431;DHT22;30135;47.866;-4.222;2023-03-01T06:15:29;3.90;78.70
44431;DHT22;30135;47.866;-4.222;2023-03-01T06:17:55;3.90;78.70
44431;DHT22;30135;47.866;-4.222;2023-03-01T06:20:27;3.80;78.70
44431;DHT22;30135;47.866;-4.222;2023-03-01T06:22:54;3.90;78.80
44431;DHT22;30135;47.866;-4.222;2023-03-01T06:25:22;3.80;78.60
44431;DHT22;30135;47.866;-4.222;2023-03-01T06:27:50;3.90;78.70
44431;DHT22;30135;47.866;-4.222;2023-03-01T06:30:19;3.80;78.70
44431;DHT22;30135;47.866;-4.222;2023-03-01T06:32:46;3.80;78.60
44431;DHT22;30135;47.866;-4.222;2023-03-01T06:35:14;3.80;78.60
44431;DHT22;30135;47.866;-4.222;2023-03-01T06:37:43;3.80;78.60
44431;DHT22;30135;47.866;-4.222;2023-03-01T06:40:10;3.80;78.60
44431;DHT22;30135;47.866;-4.222;2023-03-01T06:42:38;3.80;78.80
44431;DHT22;30135;47.866;-4.222;2023-03-01T06:45:06;3.80;78.80
44431;DHT22;30135;47.866;-4.222;2023-03-01T06:47:33;3.80;78.70
44431;DHT22;30135;47.866;-4.222;2023-03-01T06:50:01;3.80;78.70
44431;DHT22;30135;47.866;-4.222;2023-03-01T06:52:27;3.80;78.70
44431;DHT22;30135;47.866;-4.222;2023-03-01T06:54:54;3.80;78.70
44431;DHT22;30135;47.866;-4.222;2023-03-01T06:57:20;3.80;78.70
44431;DHT22;30135;47.866;-4.222;2023-03-01T06:59:47;3.80;78.70
44431;DHT22;30135;47.866;-4.222;2023-03-01T07:02:14;3.80;78.70
44431;DHT22;30135;47.866;-4.222;2023-03-01T07:04:41;3.80;78.60
44431;DHT22;30135;47.866;-4.222;2023-03-01T07:07:08;3.70;78.50
44431;DHT22;30135;47.866;-4.222;2023-03-01T07:09:34;3.80;78.60
44431;DHT22;30135;47.866;-4.222;2023-03-01T07:12:00;3.70;78.50
44431;DHT22;30135;47.866;-4.222;2023-03-01T07:14:27;3.70;78.50
44431;DHT22;30135;47.866;-4.222;2023-03-01T07:16:56;3.70;78.50
44431;DHT22;30135;47.866;-4.222;2023-03-01T07:19:22;3.70;78.50
44431;DHT22;30135;47.866;-4.222;2023-03-01T07:21:48;3.70;79.30
44431;DHT22;30135;47.866;-4.222;2023-03-01T07:24:14;3.70;78.50
44431;DHT22;30135;47.866;-4.222;2023-03-01T07:26:40;3.70;78.50
44431;DHT22;30135;47.866;-4.222;2023-03-01T07:29:07;3.70;78.50
44431;DHT22;30135;47.866;-4.222;2023-03-01T07:31:33;3.70;78.60
44431;DHT22;30135;47.866;-4.222;2023-03-01T07:33:59;3.70;78.50
44431;DHT22;30135;47.866;-4.222;2023-03-01T07:36:25;3.70;78.50
44431;DHT22;30135;47.866;-4.222;2023-03-01T07:38:52;3.70;78.50
44431;DHT22;30135;47.866;-4.222;2023-03-01T07:41:20;3.70;78.50
44431;DHT22;30135;47.866;-4.222;2023-03-01T07:43:46;3.70;78.50
44431;DHT22;30135;47.866;-4.222;2023-03-01T07:46:12;3.70;78.50
44431;DHT22;30135;47.866;-4.222;2023-03-01T07:48:38;3.70;79.20
44431;DHT22;30135;47.866;-4.222;2023-03-01T07:51:07;3.70;78.50
44431;DHT22;30135;47.866;-4.222;2023-03-01T07:53:34;3.70;78.40
44431;DHT22;30135;47.866;-4.222;2023-03-01T07:56:09;3.70;78.40
44431;DHT22;30135;47.866;-4.222;2023-03-01T07:58:39;3.70;79.20
44431;DHT22;30135;47.866;-4.222;2023-03-01T08:01:10;3.70;78.50
44431;DHT22;30135;47.866;-4.222;2023-03-01T08:03:38;3.80;78.40
44431;DHT22;30135;47.866;-4.222;2023-03-01T08:06:11;3.70;78.30
44431;DHT22;30135;47.866;-4.222;2023-03-01T08:08:38;3.80;78.30
44431;DHT22;30135;47.866;-4.222;2023-03-01T08:11:05;3.80;78.10
44431;DHT22;30135;47.866;-4.222;2023-03-01T08:13:32;3.80;78.10
44431;DHT22;30135;47.866;-4.222;2023-03-01T08:16:06;3.80;78.10
44431;DHT22;30135;47.866;-4.222;2023-03-01T08:18:35;3.80;78.10
44431;DHT22;30135;47.866;-4.222;2023-03-01T08:21:03;3.80;78.00
44431;DHT22;30135;47.866;-4.222;2023-03-01T08:23:34;3.80;78.00
44431;DHT22;30135;47.866;-4.222;2023-03-01T08:26:11;3.90;78.10
44431;DHT22;30135;47.866;-4.222;2023-03-01T08:28:39;3.90;78.10
44431;DHT22;30135;47.866;-4.222;2023-03-01T08:31:17;3.90;78.00
44431;DHT22;30135;47.866;-4.222;2023-03-01T08:33:46;3.90;77.90
44431;DHT22;30135;47.866;-4.222;2023-03-01T08:36:25;3.90;77.90
44431;DHT22;30135;47.866;-4.222;2023-03-01T08:38:55;3.90;77.90
44431;DHT22;30135;47.866;-4.222;2023-03-01T08:41:22;3.90;77.90
44431;DHT22;30135;47.866;-4.222;2023-03-01T08:43:48;3.90;77.90
44431;DHT22;30135;47.866;-4.222;2023-03-01T08:46:15;3.90;77.90
44431;DHT22;30135;47.866;-4.222;2023-03-01T08:48:41;3.90;77.90
44431;DHT22;30135;47.866;-4.222;2023-03-01T08:51:15;4.00;78.00
44431;DHT22;30135;47.866;-4.222;2023-03-01T08:53:43;4.00;78.00
44431;DHT22;30135;47.866;-4.222;2023-03-01T08:56:10;4.00;78.00
44431;DHT22;30135;47.866;-4.222;2023-03-01T08:58:37;4.00;77.90
44431;DHT22;30135;47.866;-4.222;2023-03-01T09:01:14;4.10;78.00
44431;DHT22;30135;47.866;-4.222;2023-03-01T09:03:42;4.10;78.00
44431;DHT22;30135;47.866;-4.222;2023-03-01T09:06:08;4.10;78.10
44431;DHT22;30135;47.866;-4.222;2023-03-01T09:08:40;4.10;78.00
44431;DHT22;30135;47.866;-4.222;2023-03-01T09:11:10;4.20;78.00
44431;DHT22;30135;47.866;-4.222;2023-03-01T09:13:38;4.20;78.00
44431;DHT22;30135;47.866;-4.222;2023-03-01T09:16:06;4.30;78.10
44431;DHT22;30135;47.866;-4.222;2023-03-01T09:18:33;4.30;77.80
44431;DHT22;30135;47.866;-4.222;2023-03-01T09:21:05;4.30;77.80
44431;DHT22;30135;47.866;-4.222;2023-03-01T09:23:36;4.30;77.80
44431;DHT22;30135;47.866;-4.222;2023-03-01T09:26:17;4.40;77.90
44431;DHT22;30135;47.866;-4.222;2023-03-01T09:28:46;4.50;77.80
44431;DHT22;30135;47.866;-4.222;2023-03-01T09:31:13;4.50;77.70
44431;DHT22;30135;47.866;-4.222;2023-03-01T09:33:42;4.60;77.80
44431;DHT22;30135;47.866;-4.222;2023-03-01T09:36:13;4.60;77.50
44431;DHT22;30135;47.866;-4.222;2023-03-01T09:38:41;4.70;77.70
44431;DHT22;30135;47.866;-4.222;2023-03-01T09:46:44;4.80;77.50
44431;DHT22;30135;47.866;-4.222;2023-03-01T09:49:23;4.80;77.40
44431;DHT22;30135;47.866;-4.222;2023-03-01T09:54:56;4.90;77.10
44431;DHT22;30135;47.866;-4.222;2023-03-01T09:57:46;5.00;77.00
44431;DHT22;30135;47.866;-4.222;2023-03-01T10:03:14;5.10;76.70
44431;DHT22;30135;47.866;-4.222;2023-03-01T10:06:06;5.20;76.90
44431;DHT22;30135;47.866;-4.222;2023-03-01T10:11:47;5.30;76.70
44431;DHT22;30135;47.866;-4.222;2023-03-01T10:14:36;5.30;76.60
44431;DHT22;30135;47.866;-4.222;2023-03-01T10:17:12;5.40;76.50
44431;DHT22;30135;47.866;-4.222;2023-03-01T10:19:46;5.40;76.30
44431;DHT22;30135;47.866;-4.222;2023-03-01T10:24:54;5.50;76.30
44431;DHT22;30135;47.866;-4.222;2023-03-01T10:27:24;5.60;76.20
44431;DHT22;30135;47.866;-4.222;2023-03-01T10:32:32;5.70;76.10
44431;DHT22;30135;47.866;-4.222;2023-03-01T10:34:58;5.70;76.20
44431;DHT22;30135;47.866;-4.222;2023-03-01T10:37:24;5.80;76.00
44431;DHT22;30135;47.866;-4.222;2023-03-01T10:42:54;5.90;76.00
44431;DHT22;30135;47.866;-4.222;2023-03-01T10:51:05;6.10;75.90
44431;DHT22;30135;47.866;-4.222;2023-03-01T10:53:38;6.10;75.70
44431;DHT22;30135;47.866;-4.222;2023-03-01T10:56:09;6.20;75.60
44431;DHT22;30135;47.866;-4.222;2023-03-01T10:58:38;6.20;75.50
44431;DHT22;30135;47.866;-4.222;2023-03-01T11:03:41;6.40;75.60
44431;DHT22;30135;47.866;-4.222;2023-03-01T11:08:43;6.50;75.30
44431;DHT22;30135;47.866;-4.222;2023-03-01T11:11:33;6.60;75.40
44431;DHT22;30135;47.866;-4.222;2023-03-01T11:14:12;6.70;74.90
44431;DHT22;30135;47.866;-4.222;2023-03-01T11:16:45;6.70;74.90
44431;DHT22;30135;47.866;-4.222;2023-03-01T11:24:14;6.90;74.50
44431;DHT22;30135;47.866;-4.222;2023-03-01T11:26:47;7.00;74.50
44431;DHT22;30135;47.866;-4.222;2023-03-01T11:29:33;7.00;74.50
44431;DHT22;30135;47.866;-4.222;2023-03-01T11:32:06;7.10;74.60
44431;DHT22;30135;47.866;-4.222;2023-03-01T11:35:03;7.20;74.20
44431;DHT22;30135;47.866;-4.222;2023-03-01T11:37:50;7.30;74.10
44431;DHT22;30135;47.866;-4.222;2023-03-01T11:40:26;7.30;73.80
44431;DHT22;30135;47.866;-4.222;2023-03-01T11:45:58;7.40;73.80
44431;DHT22;30135;47.866;-4.222;2023-03-01T11:54:58;7.60;73.80
44431;DHT22;30135;47.866;-4.222;2023-03-01T12:15:44;7.70;72.80
44431;DHT22;30135;47.866;-4.222;2023-03-01T12:21:30;7.80;72.80
44431;DHT22;30135;47.866;-4.222;2023-03-01T12:24:31;7.90;72.80
44431;DHT22;30135;47.866;-4.222;2023-03-01T12:33:14;7.90;72.50
44431;DHT22;30135;47.866;-4.222;2023-03-01T12:45:02;8.00;72.30
44431;DHT22;30135;47.866;-4.222;2023-03-01T12:50:20;8.00;72.10
44431;DHT22;30135;47.866;-4.222;2023-03-01T12:52:57;8.10;72.10
44431;DHT22;30135;47.866;-4.222;2023-03-01T13:02:04;8.30;71.90
44431;DHT22;30135;47.866;-4.222;2023-03-01T13:07:23;8.40;72.20
44431;DHT22;30135;47.866;-4.222;2023-03-01T13:12:52;8.50;71.70
44431;DHT22;30135;47.866;-4.222;2023-03-01T13:17:55;8.50;71.60
44431;DHT22;30135;47.866;-4.222;2023-03-01T13:20:33;8.50;71.50
44431;DHT22;30135;47.866;-4.222;2023-03-01T13:23:12;8.50;71.20
44431;DHT22;30135;47.866;-4.222;2023-03-01T13:28:40;8.50;71.00
44431;DHT22;30135;47.866;-4.222;2023-03-01T13:33:48;8.50;71.10
44431;DHT22;30135;47.866;-4.222;2023-03-01T13:39:30;8.50;70.70
44431;DHT22;30135;47.866;-4.222;2023-03-01T13:41:59;8.50;70.20
44431;DHT22;30135;47.866;-4.222;2023-03-01T13:44:37;8.50;70.50
44431;DHT22;30135;47.866;-4.222;2023-03-01T13:47:13;8.50;70.40
44431;DHT22;30135;47.866;-4.222;2023-03-01T13:49:49;8.60;70.60
44431;DHT22;30135;47.866;-4.222;2023-03-01T13:52:37;8.60;70.50
44431;DHT22;30135;47.866;-4.222;2023-03-01T13:57:40;8.60;70.40
44431;DHT22;30135;47.866;-4.222;2023-03-01T14:06:04;8.70;70.50
44431;DHT22;30135;47.866;-4.222;2023-03-01T14:08:35;8.70;70.60
44431;DHT22;30135;47.866;-4.222;2023-03-01T14:19:36;8.80;70.30
44431;DHT22;30135;47.866;-4.222;2023-03-01T14:25:00;8.80;70.40
44431;DHT22;30135;47.866;-4.222;2023-03-01T14:27:35;8.80;70.10
44431;DHT22;30135;47.866;-4.222;2023-03-01T14:30:26;8.90;70.30
44431;DHT22;30135;47.866;-4.222;2023-03-01T14:32:58;8.80;69.60
44431;DHT22;30135;47.866;-4.222;2023-03-01T14:35:35;8.90;70.00
44431;DHT22;30135;47.866;-4.222;2023-03-01T14:38:02;8.90;69.90
44431;DHT22;30135;47.866;-4.222;2023-03-01T14:40:36;8.90;69.90
44431;DHT22;30135;47.866;-4.222;2023-03-01T14:43:10;8.90;69.80
44431;DHT22;30135;47.866;-4.222;2023-03-01T14:45:37;8.90;69.70
44431;DHT22;30135;47.866;-4.222;2023-03-01T14:48:07;9.00;69.70
44431;DHT22;30135;47.866;-4.222;2023-03-01T14:50:35;9.00;69.60
44431;DHT22;30135;47.866;-4.222;2023-03-01T14:53:18;9.00;70.20
44431;DHT22;30135;47.866;-4.222;2023-03-01T14:55:49;9.00;69.30
44431;DHT22;30135;47.866;-4.222;2023-03-01T14:58:21;9.00;69.30
44431;DHT22;30135;47.866;-4.222;2023-03-01T15:03:41;9.10;69.40
44431;DHT22;30135;47.866;-4.222;2023-03-01T15:06:10;9.10;69.10
44431;DHT22;30135;47.866;-4.222;2023-03-01T15:08:42;9.10;69.00
44431;DHT22;30135;47.866;-4.222;2023-03-01T15:11:29;9.20;69.20
44431;DHT22;30135;47.866;-4.222;2023-03-01T15:13:55;9.20;69.00
44431;DHT22;30135;47.866;-4.222;2023-03-01T15:16:26;9.20;69.30
44431;DHT22;30135;47.866;-4.222;2023-03-01T15:19:02;9.20;69.10
44431;DHT22;30135;47.866;-4.222;2023-03-01T15:21:37;9.30;69.20
44431;DHT22;30135;47.866;-4.222;2023-03-01T15:26:44;9.40;69.10
44431;DHT22;30135;47.866;-4.222;2023-03-01T15:29:25;9.40;69.00
44431;DHT22;30135;47.866;-4.222;2023-03-01T15:32:04;9.40;68.90
44431;DHT22;30135;47.866;-4.222;2023-03-01T15:34:33;9.40;69.00
44431;DHT22;30135;47.866;-4.222;2023-03-01T15:37:04;9.50;68.90
44431;DHT22;30135;47.866;-4.222;2023-03-01T15:42:12;9.50;68.50
44431;DHT22;30135;47.866;-4.222;2023-03-01T15:47:46;9.50;68.30
44431;DHT22;30135;47.866;-4.222;2023-03-01T15:50:23;9.50;68.40
44431;DHT22;30135;47.866;-4.222;2023-03-01T15:52:54;9.50;68.40
44431;DHT22;30135;47.866;-4.222;2023-03-01T15:55:28;9.50;68.60
44431;DHT22;30135;47.866;-4.222;2023-03-01T15:58:02;9.60;68.80
44431;DHT22;30135;47.866;-4.222;2023-03-01T16:00:29;9.60;68.60
44431;DHT22;30135;47.866;-4.222;2023-03-01T16:02:55;9.60;68.80
44431;DHT22;30135;47.866;-4.222;2023-03-01T16:05:24;9.60;68.60
44431;DHT22;30135;47.866;-4.222;2023-03-01T16:07:53;9.70;68.30
44431;DHT22;30135;47.866;-4.222;2023-03-01T16:10:20;9.70;68.20
44431;DHT22;30135;47.866;-4.222;2023-03-01T16:12:46;9.60;68.00
44431;DHT22;30135;47.866;-4.222;2023-03-01T16:17:47;9.60;67.70
44431;DHT22;30135;47.866;-4.222;2023-03-01T16:20:13;9.50;67.60
44431;DHT22;30135;47.866;-4.222;2023-03-01T16:22:43;9.50;67.90
44431;DHT22;30135;47.866;-4.222;2023-03-01T16:25:10;9.40;68.00
44431;DHT22;30135;47.866;-4.222;2023-03-01T16:27:38;9.40;68.10
44431;DHT22;30135;47.866;-4.222;2023-03-01T16:30:08;9.40;68.30
44431;DHT22;30135;47.866;-4.222;2023-03-01T16:32:42;9.30;68.30
44431;DHT22;30135;47.866;-4.222;2023-03-01T16:35:11;9.30;68.50
44431;DHT22;30135;47.866;-4.222;2023-03-01T16:37:39;9.30;68.30
44431;DHT22;30135;47.866;-4.222;2023-03-01T16:40:07;9.30;68.50
44431;DHT22;30135;47.866;-4.222;2023-03-01T16:42:49;9.20;68.50
44431;DHT22;30135;47.866;-4.222;2023-03-01T16:45:16;9.20;68.70
44431;DHT22;30135;47.866;-4.222;2023-03-01T16:47:43;9.20;68.70
44431;DHT22;30135;47.866;-4.222;2023-03-01T16:50:09;9.20;68.70
44431;DHT22;30135;47.866;-4.222;2023-03-01T16:52:37;9.20;68.80
44431;DHT22;30135;47.866;-4.222;2023-03-01T16:55:17;9.20;69.00
44431;DHT22;30135;47.866;-4.222;2023-03-01T16:57:50;9.10;69.10
44431;DHT22;30135;47.866;-4.222;2023-03-01T17:00:16;9.20;69.30
44431;DHT22;30135;47.866;-4.222;2023-03-01T17:02:43;9.20;69.30
44431;DHT22;30135;47.866;-4.222;2023-03-01T17:05:10;9.10;69.20
44431;DHT22;30135;47.866;-4.222;2023-03-01T17:07:37;9.10;69.20
44431;DHT22;30135;47.866;-4.222;2023-03-01T17:10:07;9.10;69.40
44431;DHT22;30135;47.866;-4.222;2023-03-01T17:12:35;9.00;69.50
44431;DHT22;30135;47.866;-4.222;2023-03-01T17:15:02;9.00;69.60
44431;DHT22;30135;47.866;-4.222;2023-03-01T17:17:29;9.00;69.50
44431;DHT22;30135;47.866;-4.222;2023-03-01T17:19:56;8.90;69.60
44431;DHT22;30135;47.866;-4.222;2023-03-01T17:22:25;8.80;69.50
44431;DHT22;30135;47.866;-4.222;2023-03-01T17:24:54;8.80;69.70
44431;DHT22;30135;47.866;-4.222;2023-03-01T17:27:21;8.70;69.80
44431;DHT22;30135;47.866;-4.222;2023-03-01T17:29:50;8.70;69.90
44431;DHT22;30135;47.866;-4.222;2023-03-01T17:32:16;8.70;69.90
44431;DHT22;30135;47.866;-4.222;2023-03-01T17:34:42;8.60;70.00
44431;DHT22;30135;47.866;-4.222;2023-03-01T17:37:08;8.60;70.10
44431;DHT22;30135;47.866;-4.222;2023-03-01T17:39:34;8.50;70.20
44431;DHT22;30135;47.866;-4.222;2023-03-01T17:42:01;8.50;70.30
44431;DHT22;30135;47.866;-4.222;2023-03-01T17:44:30;8.50;70.40
44431;DHT22;30135;47.866;-4.222;2023-03-01T17:46:59;8.40;70.30
44431;DHT22;30135;47.866;-4.222;2023-03-01T17:49:26;8.40;70.30
44431;DHT22;30135;47.866;-4.222;2023-03-01T17:51:52;8.40;70.30
44431;DHT22;30135;47.866;-4.222;2023-03-01T17:54:18;8.40;70.30
44431;DHT22;30135;47.866;-4.222;2023-03-01T17:56:44;8.40;70.30
44431;DHT22;30135;47.866;-4.222;2023-03-01T17:59:11;8.40;70.40
44431;DHT22;30135;47.866;-4.222;2023-03-01T18:01:39;8.40;70.30
44431;DHT22;30135;47.866;-4.222;2023-03-01T18:04:07;8.30;70.30
44431;DHT22;30135;47.866;-4.222;2023-03-01T18:06:34;8.30;70.30
44431;DHT22;30135;47.866;-4.222;2023-03-01T18:09:00;8.20;70.40
44431;DHT22;30135;47.866;-4.222;2023-03-01T18:11:27;8.20;70.40
44431;DHT22;30135;47.866;-4.222;2023-03-01T18:13:54;8.20;70.40
44431;DHT22;30135;47.866;-4.222;2023-03-01T18:16:21;8.20;70.80
44431;DHT22;30135;47.866;-4.222;2023-03-01T18:18:54;8.20;70.90
44431;DHT22;30135;47.866;-4.222;2023-03-01T18:21:20;8.20;70.90
44431;DHT22;30135;47.866;-4.222;2023-03-01T18:23:49;8.20;70.90